createdAt,value
2018-07-30T00:02:00.535Z,25.50
2018-07-30T00:04:28.842Z,25.50
2018-07-30T00:06:57.059Z,25.50
2018-07-30T00:09:25.275Z,25.40
2018-07-30T00:11:53.543Z,25.40
2018-07-30T00:14:21.789Z,25.40
2018-07-30T00:16:50.113Z,25.40
2018-07-30T00:21:46.319Z,25.50
2018-07-30T00:24:14.550Z,25.50
2018-07-30T00:26:42.769Z,25.30
2018-07-30T00:29:11.061Z,25.30
2018-07-30T00:31:39.291Z,25.30
2018-07-30T00:34:07.526Z,25.40
2018-07-30T00:36:35.773Z,25.30
2018-07-30T00:39:06.131Z,25.30
2018-07-30T00:44:02.382Z,25.30
2018-07-30T00:46:30.601Z,25.20
2018-07-30T00:51:26.815Z,25.20
2018-07-30T00:53:55.027Z,25.20
2018-07-30T00:56:23.284Z,25.10
2018-07-30T00:58:51.510Z,25.10
2018-07-30T01:01:19.738Z,25.10
2018-07-30T01:03:47.985Z,25.10
2018-07-30T01:06:16.209Z,25.00
2018-07-30T01:08:44.424Z,25.00
2018-07-30T01:11:12.647Z,25.00
2018-07-30T01:13:40.894Z,25.00
2018-07-30T01:16:09.106Z,24.90
2018-07-30T01:18:37.331Z,24.80
2018-07-30T01:21:05.569Z,24.70
2018-07-30T01:23:33.797Z,24.60
2018-07-30T01:26:07.462Z,24.60
2018-07-30T01:28:35.722Z,24.60
2018-07-30T01:31:03.929Z,24.60
2018-07-30T01:33:32.253Z,24.60
2018-07-30T01:36:00.485Z,24.60
2018-07-30T01:38:28.730Z,24.60
2018-07-30T01:40:56.992Z,24.60
2018-07-30T01:43:25.211Z,24.60
2018-07-30T01:45:53.420Z,24.50
2018-07-30T01:48:21.628Z,24.60
2018-07-30T01:50:49.849Z,24.50
2018-07-30T01:53:18.069Z,24.60
2018-07-30T01:55:46.280Z,24.50
2018-07-30T01:58:14.518Z,24.50
2018-07-30T02:00:42.766Z,24.50
2018-07-30T02:03:11.010Z,24.50
2018-07-30T02:05:39.223Z,24.50
2018-07-30T02:08:07.444Z,24.50
2018-07-30T02:10:35.668Z,24.50
2018-07-30T02:13:03.933Z,24.40
2018-07-30T02:15:32.182Z,24.40
2018-07-30T02:18:00.401Z,24.30
2018-07-30T02:20:28.637Z,24.20
2018-07-30T02:25:24.854Z,24.10
2018-07-30T02:27:53.083Z,24.10
2018-07-30T02:30:21.311Z,24.00
2018-07-30T02:32:49.551Z,24.00
2018-07-30T02:35:17.800Z,23.90
2018-07-30T02:37:46.158Z,23.90
2018-07-30T02:42:42.396Z,23.80
2018-07-30T02:45:10.623Z,23.70
2018-07-30T02:47:38.861Z,23.50
2018-07-30T02:50:07.507Z,23.50
2018-07-30T02:52:35.713Z,23.50
2018-07-30T02:55:04.320Z,23.40
2018-07-30T02:57:32.612Z,23.30
2018-07-30T03:00:00.847Z,23.30
2018-07-30T03:02:29.092Z,23.20
2018-07-30T03:04:57.336Z,23.20
2018-07-30T03:07:25.575Z,23.20
2018-07-30T03:09:54.055Z,23.20
2018-07-30T03:12:22.284Z,23.20
2018-07-30T03:14:50.484Z,23.20
2018-07-30T03:22:14.661Z,23.20
2018-07-30T03:24:42.909Z,23.20
2018-07-30T03:27:11.186Z,23.20
2018-07-30T03:29:39.443Z,23.10
2018-07-30T03:32:07.643Z,23.10
2018-07-30T03:34:35.869Z,23.00
2018-07-30T03:39:32.122Z,23.00
2018-07-30T03:42:00.372Z,22.90
2018-07-30T03:44:28.595Z,22.90
2018-07-30T03:46:56.826Z,22.80
2018-07-30T03:49:25.029Z,22.80
2018-07-30T03:51:53.271Z,22.70
2018-07-30T03:54:21.505Z,22.70
2018-07-30T03:59:40.800Z,22.60
2018-07-30T04:02:09.201Z,22.60
2018-07-30T04:04:37.449Z,22.60
2018-07-30T04:07:05.696Z,22.60
2018-07-30T04:09:33.932Z,22.60
2018-07-30T04:12:02.155Z,22.60
2018-07-30T04:14:30.409Z,22.60
2018-07-30T04:16:58.674Z,22.60
2018-07-30T04:19:26.910Z,22.60
2018-07-30T04:21:55.691Z,22.70
2018-07-30T04:24:23.940Z,22.70
2018-07-30T04:26:52.181Z,22.80
2018-07-30T04:29:20.423Z,22.80
2018-07-30T04:31:48.668Z,22.80
2018-07-30T04:34:16.932Z,22.90
2018-07-30T04:36:45.200Z,22.90
2018-07-30T04:39:15.266Z,23.00
2018-07-30T04:41:44.143Z,23.00
2018-07-30T04:44:12.407Z,23.10
2018-07-30T04:46:40.661Z,23.10
2018-07-30T04:49:08.934Z,23.10
2018-07-30T04:51:37.525Z,23.10
2018-07-30T04:54:06.098Z,23.00
2018-07-30T04:59:02.291Z,23.00
2018-07-30T05:01:30.777Z,22.90
2018-07-30T05:03:59.011Z,22.90
2018-07-30T05:06:27.260Z,22.90
2018-07-30T05:08:55.529Z,22.70
2018-07-30T05:13:51.785Z,22.80
2018-07-30T05:16:20.033Z,22.90
2018-07-30T05:18:48.305Z,23.00
2018-07-30T05:21:16.542Z,23.10
2018-07-30T05:23:44.793Z,23.10
2018-07-30T05:26:13.468Z,23.10
2018-07-30T05:28:41.683Z,23.10
2018-07-30T05:31:09.936Z,23.00
2018-07-30T05:33:38.203Z,23.10
2018-07-30T05:36:06.444Z,23.00
2018-07-30T05:38:35.017Z,23.00
2018-07-30T05:41:03.250Z,22.90
2018-07-30T05:43:31.575Z,22.90
2018-07-30T05:50:55.806Z,23.00
2018-07-30T05:53:24.044Z,23.00
2018-07-30T05:55:52.244Z,23.00
2018-07-30T05:58:20.510Z,23.20
2018-07-30T06:00:48.801Z,23.30
2018-07-30T06:03:17.227Z,23.40
2018-07-30T06:05:45.464Z,23.50
2018-07-30T06:08:13.716Z,23.70
2018-07-30T06:10:41.965Z,23.90
2018-07-30T06:13:10.199Z,24.10
2018-07-30T06:15:38.450Z,24.30
2018-07-30T06:18:07.016Z,24.50
2018-07-30T06:20:35.349Z,24.70
2018-07-30T06:23:03.584Z,24.80
2018-07-30T06:25:31.809Z,24.90
2018-07-30T06:28:00.030Z,24.90
2018-07-30T06:30:28.253Z,25.00
2018-07-30T06:35:24.415Z,25.10
2018-07-30T06:37:52.624Z,25.20
2018-07-30T06:40:20.857Z,25.20
2018-07-30T06:42:49.094Z,25.30
2018-07-30T06:45:17.304Z,25.30
2018-07-30T06:47:45.533Z,25.40
2018-07-30T06:50:13.722Z,25.50
2018-07-30T06:52:41.928Z,25.60
2018-07-30T06:55:10.173Z,25.70
2018-07-30T06:57:38.599Z,25.80
2018-07-30T07:00:08.857Z,25.90
2018-07-30T07:02:37.219Z,25.90
2018-07-30T07:05:06.330Z,26.00
2018-07-30T07:07:34.563Z,26.00
2018-07-30T07:10:02.762Z,26.00
2018-07-30T07:12:30.959Z,26.10
2018-07-30T07:14:59.184Z,26.10
2018-07-30T07:17:27.356Z,26.10
2018-07-30T07:19:55.550Z,26.10
2018-07-30T07:22:23.763Z,26.20
2018-07-30T07:24:51.955Z,26.30
2018-07-30T07:27:20.174Z,26.30
2018-07-30T07:29:48.398Z,26.30
2018-07-30T07:32:16.591Z,26.50
2018-07-30T07:34:44.800Z,26.50
2018-07-30T07:39:44.615Z,26.60
2018-07-30T07:42:12.865Z,26.70
2018-07-30T07:44:41.107Z,26.80
2018-07-30T07:47:09.312Z,26.90
2018-07-30T07:49:37.539Z,27.00
2018-07-30T07:52:05.758Z,27.10
2018-07-30T07:54:33.991Z,27.30
2018-07-30T07:57:02.196Z,27.40
2018-07-30T07:59:30.419Z,27.50
2018-07-30T08:01:58.620Z,27.70
2018-07-30T08:04:26.857Z,27.90
2018-07-30T08:06:55.077Z,28.00
2018-07-30T08:09:23.291Z,28.10
2018-07-30T08:11:51.507Z,28.10
2018-07-30T08:14:19.714Z,28.20
2018-07-30T08:16:47.922Z,28.20
2018-07-30T08:19:16.126Z,28.10
2018-07-30T08:21:44.366Z,28.00
2018-07-30T08:24:12.586Z,28.00
2018-07-30T08:26:40.795Z,28.10
2018-07-30T08:29:09.023Z,28.20
2018-07-30T08:31:37.203Z,28.30
2018-07-30T08:34:05.881Z,28.50
2018-07-30T08:36:34.064Z,28.50
2018-07-30T08:39:02.284Z,28.60
2018-07-30T08:41:30.502Z,28.80
2018-07-30T08:43:58.707Z,29.00
2018-07-30T08:46:26.903Z,29.00
2018-07-30T08:48:55.185Z,29.10
2018-07-30T08:51:23.323Z,29.20
2018-07-30T08:53:51.543Z,29.30
2018-07-30T08:56:19.761Z,29.40
2018-07-30T08:58:47.931Z,29.50
2018-07-30T09:01:16.134Z,29.40
2018-07-30T09:03:44.376Z,29.50
2018-07-30T09:06:12.585Z,29.60
2018-07-30T09:08:40.784Z,29.70
2018-07-30T09:11:09.014Z,29.80
2018-07-30T09:13:37.262Z,29.80
2018-07-30T09:16:05.489Z,29.90
2018-07-30T09:18:33.688Z,29.80
2018-07-30T09:21:02.023Z,29.90
2018-07-30T09:23:30.246Z,29.90
2018-07-30T09:25:58.447Z,29.80
2018-07-30T09:28:26.669Z,29.60
2018-07-30T09:30:54.871Z,29.60
2018-07-30T09:33:23.060Z,29.50
2018-07-30T09:35:51.275Z,29.50
2018-07-30T09:38:19.497Z,29.60
2018-07-30T09:40:47.772Z,29.70
2018-07-30T09:43:15.978Z,29.70
2018-07-30T09:45:44.187Z,29.70
2018-07-30T09:48:12.401Z,29.70
2018-07-30T09:55:36.585Z,29.90
2018-07-30T09:58:04.834Z,29.90
2018-07-30T10:03:06.861Z,29.90
2018-07-30T10:05:35.051Z,30.10
2018-07-30T10:08:03.260Z,30.20
2018-07-30T10:10:31.457Z,30.40
2018-07-30T10:12:59.673Z,30.50
2018-07-30T10:15:27.909Z,30.60
2018-07-30T10:17:56.152Z,30.70
2018-07-30T10:20:24.325Z,31.00
2018-07-30T10:22:52.549Z,31.10
2018-07-30T10:25:20.767Z,31.10
2018-07-30T10:27:48.985Z,31.10
2018-07-30T10:30:17.224Z,31.30
2018-07-30T10:32:45.432Z,31.40
2018-07-30T10:35:13.621Z,31.60
2018-07-30T10:37:41.854Z,31.80
2018-07-30T10:40:10.078Z,32.00
2018-07-30T10:42:38.574Z,32.20
2018-07-30T10:45:06.790Z,32.10
2018-07-30T10:47:35.061Z,31.90
2018-07-30T10:50:03.513Z,31.70
2018-07-30T10:54:59.642Z,31.70
2018-07-30T10:57:27.877Z,31.90
2018-07-30T10:59:56.095Z,32.10
2018-07-30T11:02:24.278Z,32.40
2018-07-30T11:04:52.480Z,32.70
2018-07-30T11:07:20.709Z,32.90
2018-07-30T11:12:16.847Z,32.40
2018-07-30T11:14:45.078Z,32.40
2018-07-30T11:19:41.257Z,32.70
2018-07-30T11:22:09.444Z,32.80
2018-07-30T11:24:37.662Z,32.90
2018-07-30T11:27:05.852Z,32.80
2018-07-30T11:29:34.066Z,32.90
2018-07-30T11:32:02.288Z,33.40
2018-07-30T11:34:30.549Z,34.10
2018-07-30T11:36:58.775Z,34.70
2018-07-30T11:39:26.978Z,35.70
2018-07-30T11:41:55.195Z,36.60
2018-07-30T11:44:23.414Z,37.00
2018-07-30T11:46:51.611Z,37.50
2018-07-30T11:49:19.822Z,37.60
2018-07-30T11:51:48.039Z,37.40
2018-07-30T11:54:16.268Z,37.80
2018-07-30T11:56:44.447Z,39.00
2018-07-30T12:01:40.739Z,39.90
2018-07-30T12:04:08.892Z,40.30
2018-07-30T12:06:37.076Z,40.50
2018-07-30T12:09:06.494Z,41.10
2018-07-30T12:11:35.099Z,41.50
2018-07-30T12:14:03.333Z,42.60
2018-07-30T12:16:31.637Z,43.90
2018-07-30T12:18:59.844Z,44.90
2018-07-30T12:21:28.066Z,45.30
2018-07-30T12:23:56.247Z,45.40
2018-07-30T12:26:24.465Z,44.90
2018-07-30T12:28:52.662Z,45.70
2018-07-30T12:31:20.850Z,46.20
2018-07-30T12:33:49.036Z,46.00
2018-07-30T12:36:17.349Z,46.40
2018-07-30T12:38:45.448Z,46.70
2018-07-30T12:41:13.662Z,44.90
2018-07-30T12:43:41.918Z,43.10
2018-07-30T12:46:10.138Z,41.40
2018-07-30T12:48:38.351Z,40.30
2018-07-30T12:51:06.613Z,39.70
2018-07-30T12:53:34.839Z,39.30
2018-07-30T12:56:03.028Z,39.30
2018-07-30T12:58:31.221Z,39.90
2018-07-30T13:00:59.445Z,40.40
2018-07-30T13:03:27.643Z,41.60
2018-07-30T13:05:55.955Z,42.70
2018-07-30T13:08:24.193Z,43.20
2018-07-30T13:10:52.356Z,43.80
2018-07-30T13:13:20.592Z,44.60
2018-07-30T13:15:48.810Z,45.10
2018-07-30T13:18:17.007Z,45.50
2018-07-30T13:20:45.207Z,44.70
2018-07-30T13:23:13.430Z,44.80
2018-07-30T13:25:41.646Z,44.40
2018-07-30T13:28:09.891Z,44.60
2018-07-30T13:30:38.107Z,44.70
2018-07-30T13:33:06.315Z,44.90
2018-07-30T13:35:34.547Z,44.70
2018-07-30T13:40:30.695Z,45.30
2018-07-30T13:42:58.947Z,46.20
2018-07-30T13:45:27.138Z,46.30
2018-07-30T13:47:55.366Z,46.00
2018-07-30T13:50:23.546Z,45.10
2018-07-30T13:52:51.765Z,44.10
2018-07-30T13:55:19.972Z,44.20
2018-07-30T13:57:48.200Z,45.00
2018-07-30T14:00:16.420Z,45.10
2018-07-30T14:05:12.657Z,45.10
2018-07-30T14:07:40.871Z,43.90
2018-07-30T14:10:09.690Z,43.30
2018-07-30T14:12:38.094Z,42.90
2018-07-30T14:15:06.981Z,42.60
2018-07-30T14:17:35.187Z,42.20
2018-07-30T14:20:04.895Z,42.00
2018-07-30T14:22:33.092Z,42.10
2018-07-30T14:25:01.334Z,42.00
2018-07-30T14:27:29.526Z,42.30
2018-07-30T14:29:57.744Z,42.50
2018-07-30T14:32:25.949Z,42.30
2018-07-30T14:34:54.268Z,41.90
2018-07-30T14:37:22.510Z,41.90
2018-07-30T14:39:50.718Z,41.60
2018-07-30T14:42:18.912Z,41.30
2018-07-30T14:44:47.126Z,40.90
2018-07-30T14:47:15.343Z,40.90
2018-07-30T14:52:11.549Z,40.80
2018-07-30T14:54:39.861Z,40.30
2018-07-30T14:57:08.074Z,40.30
2018-07-30T14:59:36.340Z,40.20
2018-07-30T15:02:04.548Z,39.90
2018-07-30T15:04:32.783Z,39.50
2018-07-30T15:07:00.988Z,39.20
2018-07-30T15:09:29.201Z,39.00
2018-07-30T15:11:57.411Z,38.80
2018-07-30T15:16:53.526Z,39.90
2018-07-30T15:19:21.779Z,40.80
2018-07-30T15:21:49.927Z,41.10
2018-07-30T15:24:18.135Z,42.00
2018-07-30T15:26:46.365Z,42.70
2018-07-30T15:29:14.571Z,43.50
2018-07-30T15:31:42.808Z,44.00
2018-07-30T15:34:11.003Z,44.40
2018-07-30T15:36:39.221Z,45.10
2018-07-30T15:39:09.296Z,45.30
2018-07-30T15:41:37.487Z,45.10
2018-07-30T15:44:06.042Z,44.90
2018-07-30T15:46:34.585Z,45.00
2018-07-30T15:49:02.802Z,45.70
2018-07-30T15:51:31.165Z,46.60
2018-07-30T15:53:59.466Z,47.50
2018-07-30T15:56:28.139Z,47.60
2018-07-30T15:58:56.365Z,48.10
2018-07-30T16:01:24.569Z,48.80
2018-07-30T16:03:52.762Z,49.00
2018-07-30T16:06:20.961Z,48.90
2018-07-30T16:08:49.159Z,48.20
2018-07-30T16:11:17.394Z,47.20
2018-07-30T16:13:45.614Z,47.10
2018-07-30T16:16:13.831Z,46.40
2018-07-30T16:18:42.334Z,46.20
2018-07-30T16:21:10.583Z,46.50
2018-07-30T16:23:38.813Z,46.10
2018-07-30T16:26:07.030Z,45.90
2018-07-30T16:28:35.248Z,45.70
2018-07-30T16:31:03.462Z,45.30
2018-07-30T16:33:31.663Z,45.00
2018-07-30T16:35:59.902Z,45.00
2018-07-30T16:38:28.111Z,45.00
2018-07-30T16:40:56.362Z,45.00
2018-07-30T16:43:24.569Z,45.30
2018-07-30T16:45:52.818Z,46.00
2018-07-30T16:48:21.051Z,46.20
2018-07-30T16:50:49.302Z,46.40
2018-07-30T16:53:18.542Z,46.60
2018-07-30T16:55:46.976Z,46.50
2018-07-30T16:58:15.180Z,46.30
2018-07-30T17:00:43.402Z,45.80
2018-07-30T17:03:11.670Z,45.60
2018-07-30T17:05:39.886Z,45.90
2018-07-30T17:08:08.093Z,46.00
2018-07-30T17:10:36.310Z,46.20
2018-07-30T17:13:04.507Z,45.80
2018-07-30T17:15:32.753Z,45.00
2018-07-30T17:18:00.930Z,44.40
2018-07-30T17:20:29.458Z,44.20
2018-07-30T17:22:57.665Z,43.70
2018-07-30T17:25:25.856Z,43.80
2018-07-30T17:27:54.066Z,43.80
2018-07-30T17:30:22.265Z,43.90
2018-07-30T17:32:50.454Z,44.30
2018-07-30T17:35:18.661Z,44.80
2018-07-30T17:37:48.518Z,45.40
2018-07-30T17:40:16.745Z,45.90
2018-07-30T17:42:44.947Z,46.30
2018-07-30T17:45:13.986Z,46.40
2018-07-30T17:47:43.077Z,46.20
2018-07-30T17:52:39.327Z,45.80
2018-07-30T17:55:07.765Z,45.10
2018-07-30T17:57:36.152Z,44.50
2018-07-30T18:02:33.241Z,43.40
2018-07-30T18:05:01.470Z,42.70
2018-07-30T18:07:29.685Z,42.00
2018-07-30T18:09:58.174Z,41.40
2018-07-30T18:12:26.498Z,40.80
2018-07-30T18:17:22.788Z,39.40
2018-07-30T18:19:50.971Z,39.10
2018-07-30T18:22:19.183Z,38.80
2018-07-30T18:24:47.639Z,38.50
2018-07-30T18:27:15.950Z,38.00
2018-07-30T18:32:12.146Z,37.30
2018-07-30T18:34:40.360Z,36.90
2018-07-30T18:37:08.606Z,36.90
2018-07-30T18:39:36.863Z,37.00
2018-07-30T18:42:05.120Z,36.80
2018-07-30T18:44:33.350Z,36.80
2018-07-30T18:47:01.572Z,36.40
2018-07-30T18:49:29.769Z,36.10
2018-07-30T18:51:58.515Z,35.90
2018-07-30T18:54:26.723Z,36.00
2018-07-30T18:56:54.937Z,35.90
2018-07-30T18:59:23.171Z,35.80
2018-07-30T19:04:19.598Z,35.60
2018-07-30T19:06:47.811Z,35.50
2018-07-30T19:09:15.987Z,35.30
2018-07-30T19:11:44.230Z,35.00
2018-07-30T19:14:12.503Z,34.70
2018-07-30T19:16:40.711Z,34.40
2018-07-30T19:19:08.928Z,34.40
2018-07-30T19:21:37.165Z,34.30
2018-07-30T19:24:05.690Z,34.10
2018-07-30T19:26:33.847Z,34.00
2018-07-30T19:29:02.035Z,33.90
2018-07-30T19:31:30.303Z,33.80
2018-07-30T19:33:58.530Z,33.60
2018-07-30T19:36:26.721Z,33.60
2018-07-30T19:38:54.996Z,33.40
2018-07-30T19:43:51.128Z,33.30
2018-07-30T19:48:47.302Z,33.10
2018-07-30T19:51:15.499Z,33.00
2018-07-30T19:53:43.755Z,32.90
2018-07-30T19:56:11.959Z,32.80
2018-07-30T19:58:40.319Z,32.70
2018-07-30T20:01:08.404Z,32.60
2018-07-30T20:03:36.709Z,32.50
2018-07-30T20:06:05.607Z,32.40
2018-07-30T20:08:33.809Z,32.30
2018-07-30T20:15:57.986Z,32.10
2018-07-30T20:18:26.225Z,32.00
2018-07-30T20:20:54.449Z,31.90
2018-07-30T20:23:22.619Z,31.90
2018-07-30T20:28:18.782Z,31.70
2018-07-30T20:30:47.005Z,31.60
2018-07-30T20:33:15.213Z,31.50
2018-07-30T20:35:43.449Z,31.50
2018-07-30T20:43:07.892Z,31.30
2018-07-30T20:45:36.152Z,31.20
2018-07-30T20:48:04.412Z,31.20
2018-07-30T20:50:32.683Z,31.10
2018-07-30T20:53:00.875Z,31.10
2018-07-30T20:55:29.133Z,31.10
2018-07-30T20:57:57.336Z,31.10
2018-07-30T21:02:53.570Z,31.00
2018-07-30T21:05:21.844Z,30.90
2018-07-30T21:07:50.105Z,30.50
2018-07-30T21:10:18.308Z,30.20
2018-07-30T21:12:46.656Z,29.90
2018-07-30T21:15:14.938Z,29.80
2018-07-30T21:17:43.181Z,29.60
2018-07-30T21:20:11.450Z,29.30
2018-07-30T21:22:39.687Z,29.20
2018-07-30T21:25:07.884Z,29.20
2018-07-30T21:27:36.106Z,29.30
2018-07-30T21:30:05.186Z,29.40
2018-07-30T21:35:01.344Z,29.50
2018-07-30T21:37:29.553Z,29.50
2018-07-30T21:42:25.757Z,29.40
2018-07-30T21:44:53.959Z,29.20
2018-07-30T21:47:22.234Z,29.30
2018-07-30T21:49:50.377Z,29.20
2018-07-30T21:52:18.589Z,29.20
2018-07-30T21:54:46.807Z,29.10
2018-07-30T21:57:15.098Z,29.10
2018-07-30T21:59:43.342Z,29.10
2018-07-30T22:02:11.602Z,29.20
2018-07-30T22:04:39.919Z,29.10
2018-07-30T22:07:08.153Z,29.10
2018-07-30T22:09:36.377Z,29.10
2018-07-30T22:12:04.680Z,29.10
2018-07-30T22:14:32.901Z,29.00
2018-07-30T22:17:01.144Z,29.00
2018-07-30T22:19:29.339Z,28.90
2018-07-30T22:21:57.574Z,28.90
2018-07-30T22:24:25.795Z,28.90
2018-07-30T22:26:54.032Z,28.80
2018-07-30T22:29:22.378Z,28.70
2018-07-30T22:31:50.630Z,28.70
2018-07-30T22:34:18.852Z,28.60
2018-07-30T22:36:47.078Z,28.60
2018-07-30T22:39:15.287Z,28.60
2018-07-30T22:41:43.730Z,28.50
2018-07-30T22:46:39.961Z,28.40
2018-07-30T22:49:08.170Z,28.40
2018-07-30T22:51:36.391Z,28.40
2018-07-30T22:54:04.625Z,28.20
2018-07-30T22:56:32.851Z,27.80
2018-07-30T23:01:29.026Z,27.10
2018-07-30T23:03:57.280Z,27.10
2018-07-30T23:06:28.557Z,26.90
2018-07-30T23:11:24.742Z,27.00
2018-07-30T23:13:52.977Z,27.00
2018-07-30T23:16:21.175Z,27.00
2018-07-30T23:18:49.423Z,27.00
2018-07-30T23:21:17.627Z,27.10
2018-07-30T23:23:45.899Z,27.10
2018-07-30T23:26:14.118Z,27.00
2018-07-30T23:28:42.399Z,27.10
2018-07-30T23:31:10.589Z,27.10
2018-07-30T23:33:38.788Z,27.00
2018-07-30T23:36:07.020Z,27.00
2018-07-30T23:38:35.237Z,27.10
2018-07-30T23:41:03.450Z,27.10
2018-07-30T23:43:31.671Z,27.10
2018-07-30T23:45:59.927Z,27.00
2018-07-30T23:48:28.158Z,26.90
2018-07-30T23:50:56.386Z,26.80
2018-07-30T23:53:24.578Z,26.70
2018-07-30T23:55:52.794Z,26.60
